Hauptseite
METAR-TAF:

METAR-TAF

Flughäfen :

Flughafen Vilhelmina

Vilhelmina, Schweden

Breite: 64-34-44N, Länge: 016-50-00E, Höhe: 347 m

Beobachtung

Neuester Wetterbericht von vor 25 Minuten, um 19:20 UTC
Wind 5 kt aus Süd, variierte zwischen Südost und Süd
Temperatur 20°C
Luftfeuchtigkeit 40%
Luftdruck 1019 hPa
Sichtweite 10 km oder mehr

METAR: ESNV 231920Z AUTO 17005KT 130V190 9999 NCD 20/06 Q1019

Zeit: 21:45 (19:45 UTC)


TAF: fehlend

Wetterbeobachtungen und Prognosen von mehr als 4000 Flughäfen (METAR und TAF Bericht).

Die verfügbaren Stationen werden durch gelbe und rote Markierungen auf der Karte dargestellt.

Führen Sie die Maus auf sie, um den Namen der Station zu sehen.

Darauf klicken, um die Beobachtung von Wetterbeobachtungen und Prognosen zu sehen.

Um die Karte zu ändern : klicken Sie auf den grünen Tasten mit einem schwarzen Kreuz Zum Vergrößern, auf den grünen Button mit einem Gedankenstrich zu verkleinern, oder auf die grünen Pfeile für benachbarte Karten.


METAR-TAF: